sensor_id;sensor_type;location;lat;lon;timestamp;temperature;humidity
38938;DHT22;24727;51.974;20.868;2023-04-24T00:00:37;11.30;1.00
38938;DHT22;24727;51.974;20.868;2023-04-24T00:03:06;11.30;1.00
38938;DHT22;24727;51.974;20.868;2023-04-24T00:05:34;11.00;1.00
38938;DHT22;24727;51.974;20.868;2023-04-24T00:08:08;10.90;1.00
38938;DHT22;24727;51.974;20.868;2023-04-24T00:10:34;10.70;1.00
38938;DHT22;24727;51.974;20.868;2023-04-24T00:13:03;10.70;1.00
38938;DHT22;24727;51.974;20.868;2023-04-24T00:15:35;10.50;1.00
38938;DHT22;24727;51.974;20.868;2023-04-24T00:18:02;10.30;1.00
38938;DHT22;24727;51.974;20.868;2023-04-24T00:20:28;10.30;1.00
38938;DHT22;24727;51.974;20.868;2023-04-24T00:22:55;10.50;1.00
38938;DHT22;24727;51.974;20.868;2023-04-24T00:25:21;10.50;1.00
38938;DHT22;24727;51.974;20.868;2023-04-24T00:27:47;10.70;1.00
38938;DHT22;24727;51.974;20.868;2023-04-24T00:30:13;10.60;1.00
38938;DHT22;24727;51.974;20.868;2023-04-24T00:32:46;10.20;1.00
38938;DHT22;24727;51.974;20.868;2023-04-24T00:35:13;9.90;1.00
38938;DHT22;24727;51.974;20.868;2023-04-24T00:37:41;9.60;1.00
38938;DHT22;24727;51.974;20.868;2023-04-24T00:40:09;9.60;1.00
38938;DHT22;24727;51.974;20.868;2023-04-24T00:42:35;9.70;1.00
38938;DHT22;24727;51.974;20.868;2023-04-24T00:45:01;9.80;1.00
38938;DHT22;24727;51.974;20.868;2023-04-24T00:47:28;9.90;1.00
38938;DHT22;24727;51.974;20.868;2023-04-24T00:49:56;10.00;1.00
38938;DHT22;24727;51.974;20.868;2023-04-24T00:52:22;10.00;1.00
38938;DHT22;24727;51.974;20.868;2023-04-24T00:54:50;10.10;1.00
38938;DHT22;24727;51.974;20.868;2023-04-24T00:57:16;10.00;1.00
38938;DHT22;24727;51.974;20.868;2023-04-24T00:59:44;9.90;1.00
38938;DHT22;24727;51.974;20.868;2023-04-24T01:02:11;9.90;1.00
38938;DHT22;24727;51.974;20.868;2023-04-24T01:04:38;10.00;1.00
38938;DHT22;24727;51.974;20.868;2023-04-24T01:07:05;9.90;1.00
38938;DHT22;24727;51.974;20.868;2023-04-24T01:09:40;9.70;1.00
38938;DHT22;24727;51.974;20.868;2023-04-24T01:12:09;9.40;1.00
38938;DHT22;24727;51.974;20.868;2023-04-24T01:14:36;9.30;1.00
38938;DHT22;24727;51.974;20.868;2023-04-24T01:17:02;9.30;1.00
38938;DHT22;24727;51.974;20.868;2023-04-24T01:19:29;9.40;1.00
38938;DHT22;24727;51.974;20.868;2023-04-24T01:21:59;9.50;1.00
38938;DHT22;24727;51.974;20.868;2023-04-24T01:24:31;9.70;1.00
38938;DHT22;24727;51.974;20.868;2023-04-24T01:27:00;9.80;1.00
38938;DHT22;24727;51.974;20.868;2023-04-24T01:29:30;9.80;1.00
38938;DHT22;24727;51.974;20.868;2023-04-24T01:31:57;9.80;1.00
38938;DHT22;24727;51.974;20.868;2023-04-24T01:34:24;9.70;1.00
38938;DHT22;24727;51.974;20.868;2023-04-24T01:36:51;9.80;1.00
38938;DHT22;24727;51.974;20.868;2023-04-24T01:39:19;9.90;1.00
38938;DHT22;24727;51.974;20.868;2023-04-24T01:41:46;10.00;1.00
38938;DHT22;24727;51.974;20.868;2023-04-24T01:44:12;10.10;1.00
38938;DHT22;24727;51.974;20.868;2023-04-24T01:46:39;10.20;1.00
38938;DHT22;24727;51.974;20.868;2023-04-24T01:49:06;10.10;1.00
38938;DHT22;24727;51.974;20.868;2023-04-24T01:51:32;10.10;1.00
38938;DHT22;24727;51.974;20.868;2023-04-24T01:53:58;10.10;1.00
38938;DHT22;24727;51.974;20.868;2023-04-24T01:56:24;10.00;1.00
38938;DHT22;24727;51.974;20.868;2023-04-24T01:58:52;10.10;1.00
38938;DHT22;24727;51.974;20.868;2023-04-24T02:01:20;10.10;1.00
38938;DHT22;24727;51.974;20.868;2023-04-24T02:03:46;10.10;1.00
38938;DHT22;24727;51.974;20.868;2023-04-24T02:06:12;10.10;1.00
38938;DHT22;24727;51.974;20.868;2023-04-24T02:08:38;10.00;1.00
38938;DHT22;24727;51.974;20.868;2023-04-24T02:11:05;10.00;1.00
38938;DHT22;24727;51.974;20.868;2023-04-24T02:13:31;10.00;1.00
38938;DHT22;24727;51.974;20.868;2023-04-24T02:15:58;10.00;1.00
38938;DHT22;24727;51.974;20.868;2023-04-24T02:18:25;9.90;1.00
38938;DHT22;24727;51.974;20.868;2023-04-24T02:20:50;9.70;1.00
38938;DHT22;24727;51.974;20.868;2023-04-24T02:23:17;9.60;1.00
38938;DHT22;24727;51.974;20.868;2023-04-24T02:25:45;9.50;1.00
38938;DHT22;24727;51.974;20.868;2023-04-24T02:28:12;9.40;1.00
38938;DHT22;24727;51.974;20.868;2023-04-24T02:30:38;9.30;1.00
38938;DHT22;24727;51.974;20.868;2023-04-24T02:33:04;9.20;1.00
38938;DHT22;24727;51.974;20.868;2023-04-24T02:35:41;9.10;1.00
38938;DHT22;24727;51.974;20.868;2023-04-24T02:38:13;9.10;1.00
38938;DHT22;24727;51.974;20.868;2023-04-24T02:40:41;9.20;1.00
38938;DHT22;24727;51.974;20.868;2023-04-24T02:43:07;9.10;1.00
38938;DHT22;24727;51.974;20.868;2023-04-24T02:45:39;9.20;1.00
38938;DHT22;24727;51.974;20.868;2023-04-24T02:48:05;9.20;1.00
38938;DHT22;24727;51.974;20.868;2023-04-24T02:50:31;9.20;1.00
38938;DHT22;24727;51.974;20.868;2023-04-24T02:52:59;9.20;1.00
38938;DHT22;24727;51.974;20.868;2023-04-24T02:55:27;9.20;1.00
38938;DHT22;24727;51.974;20.868;2023-04-24T02:57:53;9.30;1.00
38938;DHT22;24727;51.974;20.868;2023-04-24T03:00:19;9.20;1.00
38938;DHT22;24727;51.974;20.868;2023-04-24T03:02:45;9.10;1.00
38938;DHT22;24727;51.974;20.868;2023-04-24T03:05:11;9.00;1.00
38938;DHT22;24727;51.974;20.868;2023-04-24T03:07:37;8.90;1.00
38938;DHT22;24727;51.974;20.868;2023-04-24T03:10:05;8.80;1.00
38938;DHT22;24727;51.974;20.868;2023-04-24T03:12:32;8.80;1.00
38938;DHT22;24727;51.974;20.868;2023-04-24T03:14:58;8.90;1.00
38938;DHT22;24727;51.974;20.868;2023-04-24T03:17:32;8.90;1.00
38938;DHT22;24727;51.974;20.868;2023-04-24T03:19:58;8.80;1.00
38938;DHT22;24727;51.974;20.868;2023-04-24T03:22:24;8.70;1.00
38938;DHT22;24727;51.974;20.868;2023-04-24T03:24:50;8.80;1.00
38938;DHT22;24727;51.974;20.868;2023-04-24T03:27:16;8.70;1.00
38938;DHT22;24727;51.974;20.868;2023-04-24T03:29:43;8.70;1.00
38938;DHT22;24727;51.974;20.868;2023-04-24T03:32:09;8.70;1.00
38938;DHT22;24727;51.974;20.868;2023-04-24T03:34:35;8.80;1.00
38938;DHT22;24727;51.974;20.868;2023-04-24T03:37:01;8.80;1.00
38938;DHT22;24727;51.974;20.868;2023-04-24T03:39:26;8.80;1.00
38938;DHT22;24727;51.974;20.868;2023-04-24T03:41:59;8.90;1.00
38938;DHT22;24727;51.974;20.868;2023-04-24T03:44:25;9.00;1.00
38938;DHT22;24727;51.974;20.868;2023-04-24T03:46:51;9.00;1.00
38938;DHT22;24727;51.974;20.868;2023-04-24T03:49:17;9.10;1.00
38938;DHT22;24727;51.974;20.868;2023-04-24T03:51:43;9.00;1.00
38938;DHT22;24727;51.974;20.868;2023-04-24T03:54:09;9.00;1.00
38938;DHT22;24727;51.974;20.868;2023-04-24T03:56:35;9.00;1.00
38938;DHT22;24727;51.974;20.868;2023-04-24T03:59:01;9.00;1.00
38938;DHT22;24727;51.974;20.868;2023-04-24T04:01:28;9.00;1.00
38938;DHT22;24727;51.974;20.868;2023-04-24T04:03:56;9.20;1.00
38938;DHT22;24727;51.974;20.868;2023-04-24T04:06:23;9.40;1.00
38938;DHT22;24727;51.974;20.868;2023-04-24T04:08:50;9.50;1.00
38938;DHT22;24727;51.974;20.868;2023-04-24T04:11:16;9.60;1.00
38938;DHT22;24727;51.974;20.868;2023-04-24T04:13:43;9.70;1.00
38938;DHT22;24727;51.974;20.868;2023-04-24T04:16:10;9.80;1.00
38938;DHT22;24727;51.974;20.868;2023-04-24T04:18:37;9.90;1.00
38938;DHT22;24727;51.974;20.868;2023-04-24T04:21:03;9.90;1.00
38938;DHT22;24727;51.974;20.868;2023-04-24T04:23:29;10.10;1.00
38938;DHT22;24727;51.974;20.868;2023-04-24T04:25:56;10.20;1.00
38938;DHT22;24727;51.974;20.868;2023-04-24T04:28:22;10.30;1.00
38938;DHT22;24727;51.974;20.868;2023-04-24T04:30:52;10.40;1.00
38938;DHT22;24727;51.974;20.868;2023-04-24T04:33:24;10.50;1.00
38938;DHT22;24727;51.974;20.868;2023-04-24T04:35:52;10.60;1.00
38938;DHT22;24727;51.974;20.868;2023-04-24T04:38:19;10.70;1.00
38938;DHT22;24727;51.974;20.868;2023-04-24T04:40:46;10.90;1.00
38938;DHT22;24727;51.974;20.868;2023-04-24T04:43:13;10.90;1.00
38938;DHT22;24727;51.974;20.868;2023-04-24T04:45:40;11.10;1.00
38938;DHT22;24727;51.974;20.868;2023-04-24T04:48:09;11.20;1.00
38938;DHT22;24727;51.974;20.868;2023-04-24T04:50:36;11.20;1.00
38938;DHT22;24727;51.974;20.868;2023-04-24T04:53:03;11.00;1.00
38938;DHT22;24727;51.974;20.868;2023-04-24T04:55:29;11.10;1.00
38938;DHT22;24727;51.974;20.868;2023-04-24T04:57:57;11.20;1.00
38938;DHT22;24727;51.974;20.868;2023-04-24T05:00:24;11.30;1.00
38938;DHT22;24727;51.974;20.868;2023-04-24T05:02:52;11.50;1.00
38938;DHT22;24727;51.974;20.868;2023-04-24T05:05:18;11.60;1.00
38938;DHT22;24727;51.974;20.868;2023-04-24T05:07:45;11.70;1.00
38938;DHT22;24727;51.974;20.868;2023-04-24T05:10:12;11.90;1.00
38938;DHT22;24727;51.974;20.868;2023-04-24T05:12:39;12.00;1.00
38938;DHT22;24727;51.974;20.868;2023-04-24T05:15:06;12.20;1.00
38938;DHT22;24727;51.974;20.868;2023-04-24T05:17:32;12.40;1.00
38938;DHT22;24727;51.974;20.868;2023-04-24T05:19:58;12.60;1.00
38938;DHT22;24727;51.974;20.868;2023-04-24T05:22:24;12.70;1.00
38938;DHT22;24727;51.974;20.868;2023-04-24T05:24:50;12.70;1.00
38938;DHT22;24727;51.974;20.868;2023-04-24T05:27:18;12.90;1.00
38938;DHT22;24727;51.974;20.868;2023-04-24T05:29:51;13.00;1.00
38938;DHT22;24727;51.974;20.868;2023-04-24T05:32:17;13.30;1.00
38938;DHT22;24727;51.974;20.868;2023-04-24T05:34:43;13.40;1.00
38938;DHT22;24727;51.974;20.868;2023-04-24T05:37:11;13.60;1.00
38938;DHT22;24727;51.974;20.868;2023-04-24T05:39:37;13.70;1.00
38938;DHT22;24727;51.974;20.868;2023-04-24T05:42:10;13.90;1.00
38938;DHT22;24727;51.974;20.868;2023-04-24T05:44:36;14.00;1.00
38938;DHT22;24727;51.974;20.868;2023-04-24T05:47:02;14.30;1.00
38938;DHT22;24727;51.974;20.868;2023-04-24T05:49:28;14.40;1.00
38938;DHT22;24727;51.974;20.868;2023-04-24T05:51:55;14.60;1.00
38938;DHT22;24727;51.974;20.868;2023-04-24T05:54:22;14.80;1.00
38938;DHT22;24727;51.974;20.868;2023-04-24T05:56:49;15.00;1.00
38938;DHT22;24727;51.974;20.868;2023-04-24T05:59:16;15.10;1.00
38938;DHT22;24727;51.974;20.868;2023-04-24T06:01:43;15.10;1.00
38938;DHT22;24727;51.974;20.868;2023-04-24T06:04:10;15.30;1.00
38938;DHT22;24727;51.974;20.868;2023-04-24T06:06:39;15.30;1.00
38938;DHT22;24727;51.974;20.868;2023-04-24T06:09:05;15.60;1.00
38938;DHT22;24727;51.974;20.868;2023-04-24T06:11:32;15.80;1.00
38938;DHT22;24727;51.974;20.868;2023-04-24T06:13:58;15.90;1.00
38938;DHT22;24727;51.974;20.868;2023-04-24T06:16:25;16.00;1.00
38938;DHT22;24727;51.974;20.868;2023-04-24T06:18:51;16.20;1.00
38938;DHT22;24727;51.974;20.868;2023-04-24T06:21:18;16.30;1.00
38938;DHT22;24727;51.974;20.868;2023-04-24T06:23:45;16.40;1.00
38938;DHT22;24727;51.974;20.868;2023-04-24T06:26:25;16.40;1.00
38938;DHT22;24727;51.974;20.868;2023-04-24T06:28:52;16.60;1.00
38938;DHT22;24727;51.974;20.868;2023-04-24T06:31:23;16.80;1.00
38938;DHT22;24727;51.974;20.868;2023-04-24T06:33:51;16.70;1.00
38938;DHT22;24727;51.974;20.868;2023-04-24T06:36:19;16.90;1.00
38938;DHT22;24727;51.974;20.868;2023-04-24T06:38:45;17.00;1.00
38938;DHT22;24727;51.974;20.868;2023-04-24T06:41:12;17.20;1.00
38938;DHT22;24727;51.974;20.868;2023-04-24T06:43:40;17.50;1.00
38938;DHT22;24727;51.974;20.868;2023-04-24T06:46:05;17.80;1.00
38938;DHT22;24727;51.974;20.868;2023-04-24T06:48:31;17.80;1.00
38938;DHT22;24727;51.974;20.868;2023-04-24T06:50:58;18.00;1.00
38938;DHT22;24727;51.974;20.868;2023-04-24T06:53:24;18.30;1.00
38938;DHT22;24727;51.974;20.868;2023-04-24T06:55:51;18.20;1.00
38938;DHT22;24727;51.974;20.868;2023-04-24T06:58:18;18.20;1.00
38938;DHT22;24727;51.974;20.868;2023-04-24T07:00:45;17.90;1.00
38938;DHT22;24727;51.974;20.868;2023-04-24T07:03:12;17.50;1.00
38938;DHT22;24727;51.974;20.868;2023-04-24T07:05:38;17.40;1.00
38938;DHT22;24727;51.974;20.868;2023-04-24T07:08:06;17.20;1.00
38938;DHT22;24727;51.974;20.868;2023-04-24T07:10:34;17.20;1.00
38938;DHT22;24727;51.974;20.868;2023-04-24T07:13:03;17.30;1.00
38938;DHT22;24727;51.974;20.868;2023-04-24T07:15:30;17.40;1.00
38938;DHT22;24727;51.974;20.868;2023-04-24T07:17:57;17.60;1.00
38938;DHT22;24727;51.974;20.868;2023-04-24T07:20:23;17.60;1.00
38938;DHT22;24727;51.974;20.868;2023-04-24T07:22:49;17.70;1.00
38938;DHT22;24727;51.974;20.868;2023-04-24T07:25:15;17.80;1.00
38938;DHT22;24727;51.974;20.868;2023-04-24T07:27:42;17.80;1.00
38938;DHT22;24727;51.974;20.868;2023-04-24T07:30:09;18.00;1.00
38938;DHT22;24727;51.974;20.868;2023-04-24T07:32:35;18.00;1.00
38938;DHT22;24727;51.974;20.868;2023-04-24T07:35:02;18.30;1.00
38938;DHT22;24727;51.974;20.868;2023-04-24T07:37:28;18.40;1.00
38938;DHT22;24727;51.974;20.868;2023-04-24T07:39:55;18.50;1.00
38938;DHT22;24727;51.974;20.868;2023-04-24T07:42:22;18.50;1.00
38938;DHT22;24727;51.974;20.868;2023-04-24T07:44:50;18.60;1.00
38938;DHT22;24727;51.974;20.868;2023-04-24T07:47:18;18.80;1.00
38938;DHT22;24727;51.974;20.868;2023-04-24T07:49:45;19.10;1.00
38938;DHT22;24727;51.974;20.868;2023-04-24T07:52:12;19.30;1.00
38938;DHT22;24727;51.974;20.868;2023-04-24T07:54:38;19.50;1.00
38938;DHT22;24727;51.974;20.868;2023-04-24T07:57:04;18.90;1.00
38938;DHT22;24727;51.974;20.868;2023-04-24T07:59:32;18.80;1.00
38938;DHT22;24727;51.974;20.868;2023-04-24T08:01:58;19.10;1.00
38938;DHT22;24727;51.974;20.868;2023-04-24T08:04:23;19.20;1.00
38938;DHT22;24727;51.974;20.868;2023-04-24T08:06:50;19.40;1.00
38938;DHT22;24727;51.974;20.868;2023-04-24T08:09:16;19.70;1.00
38938;DHT22;24727;51.974;20.868;2023-04-24T08:11:51;19.90;1.00
38938;DHT22;24727;51.974;20.868;2023-04-24T08:14:18;20.00;1.00
38938;DHT22;24727;51.974;20.868;2023-04-24T08:16:47;20.00;1.00
38938;DHT22;24727;51.974;20.868;2023-04-24T08:19:13;20.40;1.00
38938;DHT22;24727;51.974;20.868;2023-04-24T08:21:39;21.00;1.00
38938;DHT22;24727;51.974;20.868;2023-04-24T08:24:06;21.50;1.00
38938;DHT22;24727;51.974;20.868;2023-04-24T08:26:34;21.70;1.00
38938;DHT22;24727;51.974;20.868;2023-04-24T08:29:01;22.00;1.00
38938;DHT22;24727;51.974;20.868;2023-04-24T08:31:28;21.90;1.00
38938;DHT22;24727;51.974;20.868;2023-04-24T08:34:00;21.90;1.00
38938;DHT22;24727;51.974;20.868;2023-04-24T08:36:28;22.00;1.00
38938;DHT22;24727;51.974;20.868;2023-04-24T08:38:55;22.30;1.00
38938;DHT22;24727;51.974;20.868;2023-04-24T08:41:21;22.70;1.00
38938;DHT22;24727;51.974;20.868;2023-04-24T08:43:48;22.70;1.00
38938;DHT22;24727;51.974;20.868;2023-04-24T08:46:18;22.80;1.00
38938;DHT22;24727;51.974;20.868;2023-04-24T08:48:52;22.70;1.00
38938;DHT22;24727;51.974;20.868;2023-04-24T08:51:19;22.70;1.00
38938;DHT22;24727;51.974;20.868;2023-04-24T08:53:46;22.50;1.00
38938;DHT22;24727;51.974;20.868;2023-04-24T08:56:13;21.90;1.00
38938;DHT22;24727;51.974;20.868;2023-04-24T08:58:40;22.10;1.00
38938;DHT22;24727;51.974;20.868;2023-04-24T09:01:07;22.10;1.00
38938;DHT22;24727;51.974;20.868;2023-04-24T09:03:33;22.20;1.00
38938;DHT22;24727;51.974;20.868;2023-04-24T09:06:01;22.50;1.00
38938;DHT22;24727;51.974;20.868;2023-04-24T09:08:29;22.40;1.00
38938;DHT22;24727;51.974;20.868;2023-04-24T09:10:56;22.20;1.00
38938;DHT22;24727;51.974;20.868;2023-04-24T09:13:24;22.70;1.00
38938;DHT22;24727;51.974;20.868;2023-04-24T09:15:50;23.20;1.00
38938;DHT22;24727;51.974;20.868;2023-04-24T09:18:18;23.80;1.00
38938;DHT22;24727;51.974;20.868;2023-04-24T09:21:02;24.20;1.00
38938;DHT22;24727;51.974;20.868;2023-04-24T09:23:30;23.90;1.00
38938;DHT22;24727;51.974;20.868;2023-04-24T09:25:59;22.40;1.00
38938;DHT22;24727;51.974;20.868;2023-04-24T09:28:31;22.90;1.00
38938;DHT22;24727;51.974;20.868;2023-04-24T09:31:13;23.30;1.00
38938;DHT22;24727;51.974;20.868;2023-04-24T09:33:58;23.90;1.00
38938;DHT22;24727;51.974;20.868;2023-04-24T09:36:35;24.80;1.00
38938;DHT22;24727;51.974;20.868;2023-04-24T09:39:05;25.40;1.00
38938;DHT22;24727;51.974;20.868;2023-04-24T09:41:33;25.20;1.00
38938;DHT22;24727;51.974;20.868;2023-04-24T09:44:13;25.40;1.00
38938;DHT22;24727;51.974;20.868;2023-04-24T09:46:41;25.80;1.00
38938;DHT22;24727;51.974;20.868;2023-04-24T09:49:10;26.10;1.00
38938;DHT22;24727;51.974;20.868;2023-04-24T09:51:39;26.00;1.00
38938;DHT22;24727;51.974;20.868;2023-04-24T09:54:18;25.70;1.00
38938;DHT22;24727;51.974;20.868;2023-04-24T09:56:48;25.50;1.00
38938;DHT22;24727;51.974;20.868;2023-04-24T09:59:16;25.50;1.00
38938;DHT22;24727;51.974;20.868;2023-04-24T10:01:43;24.80;1.00
38938;DHT22;24727;51.974;20.868;2023-04-24T10:04:20;25.20;1.00
38938;DHT22;24727;51.974;20.868;2023-04-24T10:06:48;26.00;1.00
38938;DHT22;24727;51.974;20.868;2023-04-24T10:09:18;26.40;1.00
38938;DHT22;24727;51.974;20.868;2023-04-24T10:11:46;26.80;1.00
38938;DHT22;24727;51.974;20.868;2023-04-24T10:14:15;27.20;1.00
38938;DHT22;24727;51.974;20.868;2023-04-24T10:16:42;27.40;1.00
38938;DHT22;24727;51.974;20.868;2023-04-24T10:19:10;27.60;1.00
38938;DHT22;24727;51.974;20.868;2023-04-24T10:21:40;27.40;1.00
38938;DHT22;24727;51.974;20.868;2023-04-24T10:24:16;27.50;1.00
38938;DHT22;24727;51.974;20.868;2023-04-24T10:26:55;27.30;1.00
38938;DHT22;24727;51.974;20.868;2023-04-24T10:29:23;27.60;1.00
38938;DHT22;24727;51.974;20.868;2023-04-24T10:31:52;28.00;1.00
38938;DHT22;24727;51.974;20.868;2023-04-24T10:34:20;28.50;1.00
38938;DHT22;24727;51.974;20.868;2023-04-24T10:36:51;28.90;1.00
38938;DHT22;24727;51.974;20.868;2023-04-24T10:39:18;27.20;1.00
38938;DHT22;24727;51.974;20.868;2023-04-24T10:41:45;26.80;1.00
38938;DHT22;24727;51.974;20.868;2023-04-24T10:44:23;27.00;1.00
38938;DHT22;24727;51.974;20.868;2023-04-24T10:46:53;27.70;1.00
38938;DHT22;24727;51.974;20.868;2023-04-24T10:49:31;26.80;1.00
38938;DHT22;24727;51.974;20.868;2023-04-24T10:52:02;27.30;1.00
38938;DHT22;24727;51.974;20.868;2023-04-24T10:54:42;27.80;1.00
38938;DHT22;24727;51.974;20.868;2023-04-24T10:59:49;25.60;1.00
38938;DHT22;24727;51.974;20.868;2023-04-24T11:02:17;25.80;1.00
38938;DHT22;24727;51.974;20.868;2023-04-24T11:04:43;25.90;1.00
38938;DHT22;24727;51.974;20.868;2023-04-24T11:07:11;26.60;1.00
38938;DHT22;24727;51.974;20.868;2023-04-24T11:09:38;27.40;1.00
38938;DHT22;24727;51.974;20.868;2023-04-24T11:12:12;27.00;1.00
38938;DHT22;24727;51.974;20.868;2023-04-24T11:15:01;27.90;1.00
38938;DHT22;24727;51.974;20.868;2023-04-24T11:17:32;28.40;1.00
38938;DHT22;24727;51.974;20.868;2023-04-24T11:20:10;28.40;1.00
38938;DHT22;24727;51.974;20.868;2023-04-24T11:22:38;28.30;1.00
38938;DHT22;24727;51.974;20.868;2023-04-24T11:25:09;28.50;1.00
38938;DHT22;24727;51.974;20.868;2023-04-24T11:27:44;28.10;1.00
38938;DHT22;24727;51.974;20.868;2023-04-24T11:30:12;27.80;1.00
38938;DHT22;24727;51.974;20.868;2023-04-24T11:32:47;28.30;1.00
38938;DHT22;24727;51.974;20.868;2023-04-24T11:35:18;28.90;1.00
38938;DHT22;24727;51.974;20.868;2023-04-24T11:37:49;28.30;1.00
38938;DHT22;24727;51.974;20.868;2023-04-24T11:40:17;27.70;1.00
38938;DHT22;24727;51.974;20.868;2023-04-24T11:42:50;27.40;1.00
38938;DHT22;24727;51.974;20.868;2023-04-24T11:45:25;27.00;1.00
38938;DHT22;24727;51.974;20.868;2023-04-24T11:47:53;27.60;1.00
38938;DHT22;24727;51.974;20.868;2023-04-24T11:50:23;27.20;1.00
38938;DHT22;24727;51.974;20.868;2023-04-24T11:52:51;26.30;1.00
38938;DHT22;24727;51.974;20.868;2023-04-24T11:57:49;23.40;1.00
38938;DHT22;24727;51.974;20.868;2023-04-24T12:00:20;22.90;1.00
38938;DHT22;24727;51.974;20.868;2023-04-24T12:02:46;21.90;1.00
38938;DHT22;24727;51.974;20.868;2023-04-24T12:05:26;21.20;1.00
38938;DHT22;24727;51.974;20.868;2023-04-24T12:07:54;20.60;1.00
38938;DHT22;24727;51.974;20.868;2023-04-24T12:10:24;20.40;1.00
38938;DHT22;24727;51.974;20.868;2023-04-24T12:12:52;20.90;1.00
38938;DHT22;24727;51.974;20.868;2023-04-24T12:15:20;20.50;1.00
38938;DHT22;24727;51.974;20.868;2023-04-24T12:17:55;20.20;1.00
38938;DHT22;24727;51.974;20.868;2023-04-24T12:20:29;19.50;1.00
38938;DHT22;24727;51.974;20.868;2023-04-24T12:22:57;19.10;1.00
38938;DHT22;24727;51.974;20.868;2023-04-24T12:25:28;18.80;1.00
38938;DHT22;24727;51.974;20.868;2023-04-24T12:28:11;18.50;1.00
38938;DHT22;24727;51.974;20.868;2023-04-24T12:30:47;18.10;1.00
38938;DHT22;24727;51.974;20.868;2023-04-24T12:33:20;17.60;1.00
38938;DHT22;24727;51.974;20.868;2023-04-24T12:35:54;17.20;1.00
38938;DHT22;24727;51.974;20.868;2023-04-24T12:38:27;16.90;1.00
38938;DHT22;24727;51.974;20.868;2023-04-24T12:41:06;16.60;1.00
38938;DHT22;24727;51.974;20.868;2023-04-24T12:43:35;16.10;1.00
38938;DHT22;24727;51.974;20.868;2023-04-24T12:46:03;15.90;1.00
38938;DHT22;24727;51.974;20.868;2023-04-24T12:48:35;15.60;1.00
38938;DHT22;24727;51.974;20.868;2023-04-24T12:51:01;15.60;1.00
38938;DHT22;24727;51.974;20.868;2023-04-24T12:53:28;16.00;1.00
38938;DHT22;24727;51.974;20.868;2023-04-24T12:55:56;16.10;1.00
38938;DHT22;24727;51.974;20.868;2023-04-24T12:58:22;16.00;1.00
38938;DHT22;24727;51.974;20.868;2023-04-24T13:00:48;15.80;1.00
38938;DHT22;24727;51.974;20.868;2023-04-24T13:03:14;15.60;1.00
38938;DHT22;24727;51.974;20.868;2023-04-24T13:05:42;15.30;1.00
38938;DHT22;24727;51.974;20.868;2023-04-24T13:08:09;15.20;1.00
38938;DHT22;24727;51.974;20.868;2023-04-24T13:10:36;15.10;1.00
38938;DHT22;24727;51.974;20.868;2023-04-24T13:13:02;15.20;1.00
38938;DHT22;24727;51.974;20.868;2023-04-24T13:15:29;15.30;1.00
38938;DHT22;24727;51.974;20.868;2023-04-24T13:17:55;15.50;1.00
38938;DHT22;24727;51.974;20.868;2023-04-24T13:20:21;15.60;1.00
38938;DHT22;24727;51.974;20.868;2023-04-24T13:22:47;15.70;1.00
38938;DHT22;24727;51.974;20.868;2023-04-24T13:25:15;15.80;1.00
38938;DHT22;24727;51.974;20.868;2023-04-24T13:27:42;16.00;1.00
38938;DHT22;24727;51.974;20.868;2023-04-24T13:30:09;16.30;1.00
38938;DHT22;24727;51.974;20.868;2023-04-24T13:32:36;16.60;1.00
38938;DHT22;24727;51.974;20.868;2023-04-24T13:35:03;17.30;1.00
38938;DHT22;24727;51.974;20.868;2023-04-24T13:37:29;18.00;1.00
38938;DHT22;24727;51.974;20.868;2023-04-24T13:39:55;18.70;1.00
38938;DHT22;24727;51.974;20.868;2023-04-24T13:42:21;19.10;1.00
38938;DHT22;24727;51.974;20.868;2023-04-24T13:44:47;19.40;1.00
38938;DHT22;24727;51.974;20.868;2023-04-24T13:47:13;19.30;1.00
38938;DHT22;24727;51.974;20.868;2023-04-24T13:49:40;19.80;1.00
38938;DHT22;24727;51.974;20.868;2023-04-24T13:52:06;20.50;1.00
38938;DHT22;24727;51.974;20.868;2023-04-24T13:54:41;21.40;1.00
38938;DHT22;24727;51.974;20.868;2023-04-24T13:57:07;22.10;1.00
38938;DHT22;24727;51.974;20.868;2023-04-24T13:59:34;22.50;1.00
38938;DHT22;24727;51.974;20.868;2023-04-24T14:02:00;23.00;1.00
38938;DHT22;24727;51.974;20.868;2023-04-24T14:04:26;23.30;1.00
38938;DHT22;24727;51.974;20.868;2023-04-24T14:06:59;23.80;1.00
38938;DHT22;24727;51.974;20.868;2023-04-24T14:09:25;24.40;1.00
38938;DHT22;24727;51.974;20.868;2023-04-24T14:11:52;24.50;1.00
38938;DHT22;24727;51.974;20.868;2023-04-24T14:14:18;24.60;1.00
38938;DHT22;24727;51.974;20.868;2023-04-24T14:16:46;25.20;1.00
38938;DHT22;24727;51.974;20.868;2023-04-24T14:19:18;26.00;1.00
38938;DHT22;24727;51.974;20.868;2023-04-24T14:21:44;26.40;1.00
38938;DHT22;24727;51.974;20.868;2023-04-24T14:24:10;26.20;1.00
38938;DHT22;24727;51.974;20.868;2023-04-24T14:26:38;25.80;1.00
38938;DHT22;24727;51.974;20.868;2023-04-24T14:29:04;25.40;1.00
38938;DHT22;24727;51.974;20.868;2023-04-24T14:31:31;25.10;1.00
38938;DHT22;24727;51.974;20.868;2023-04-24T14:34:13;24.80;1.00
38938;DHT22;24727;51.974;20.868;2023-04-24T14:36:39;24.70;1.00
38938;DHT22;24727;51.974;20.868;2023-04-24T14:39:06;24.60;1.00
38938;DHT22;24727;51.974;20.868;2023-04-24T14:41:33;24.40;1.00
38938;DHT22;24727;51.974;20.868;2023-04-24T14:44:04;24.30;1.00
38938;DHT22;24727;51.974;20.868;2023-04-24T14:46:30;24.30;1.00
38938;DHT22;24727;51.974;20.868;2023-04-24T14:48:57;24.00;1.00
38938;DHT22;24727;51.974;20.868;2023-04-24T14:51:23;24.10;1.00
38938;DHT22;24727;51.974;20.868;2023-04-24T14:53:51;24.10;1.00
38938;DHT22;24727;51.974;20.868;2023-04-24T14:56:18;24.10;1.00
38938;DHT22;24727;51.974;20.868;2023-04-24T14:58:44;24.10;1.00
38938;DHT22;24727;51.974;20.868;2023-04-24T15:01:11;24.00;1.00
38938;DHT22;24727;51.974;20.868;2023-04-24T15:03:37;24.00;1.00
38938;DHT22;24727;51.974;20.868;2023-04-24T15:06:03;23.90;1.00
38938;DHT22;24727;51.974;20.868;2023-04-24T15:08:29;23.90;1.00
38938;DHT22;24727;51.974;20.868;2023-04-24T15:10:56;24.20;1.00
38938;DHT22;24727;51.974;20.868;2023-04-24T15:13:22;24.20;1.00
38938;DHT22;24727;51.974;20.868;2023-04-24T15:15:48;24.30;1.00
38938;DHT22;24727;51.974;20.868;2023-04-24T15:18:15;24.30;1.00
38938;DHT22;24727;51.974;20.868;2023-04-24T15:20:40;24.00;1.00
38938;DHT22;24727;51.974;20.868;2023-04-24T15:23:12;23.90;1.00
38938;DHT22;24727;51.974;20.868;2023-04-24T15:25:38;23.70;1.00
38938;DHT22;24727;51.974;20.868;2023-04-24T15:28:05;23.60;1.00
38938;DHT22;24727;51.974;20.868;2023-04-24T15:30:32;23.40;1.00
38938;DHT22;24727;51.974;20.868;2023-04-24T15:32:59;23.30;1.00
38938;DHT22;24727;51.974;20.868;2023-04-24T15:35:27;22.90;1.00
38938;DHT22;24727;51.974;20.868;2023-04-24T15:37:54;22.60;1.00
38938;DHT22;24727;51.974;20.868;2023-04-24T15:40:21;22.60;1.00
38938;DHT22;24727;51.974;20.868;2023-04-24T15:42:48;22.60;1.00
38938;DHT22;24727;51.974;20.868;2023-04-24T15:45:16;22.50;1.00